In Rescue
 
Open Full Screen Window  High Contrast Mode
Wind Gusting 00 knots
06
July 23, 2019 12:10 AM CDT
Weather Information
Wind Direction
  260 °
Wind Speed
  06 kt (7 mph)
Wind Gust
  00 kt (0 mph)
Altimeter
30.23 in
Visibility
10 SM
Temperature
16° C
61° F
Dewpoint
12° C
54° F
Humidity
77%
1hr Rain Fall
00.00 in.
24hr Rain Fall
00.00 in.
Sky Condition
Clear
VFR

METAR KBJI 230510Z AUTO 26006KT 10SM CLR 16/12 A3023 RMK AO2 T01550124

FAA Disclaimer: The data displayed is for advisory purposes only and is not to be used for flight planning or operations.